Weather at Venice Marco Polo Airport

Public forecast

Using degrees Celsius for public forecast. Weather courtesy of forecast.io.

Current aviation weather report (METAR) for Venice Marco Polo Airport

Retrieved 2022/07/04 11:20 UTC (19 minutes ago):

LIPZ 041120Z 18004KT 150V210 CAVOK 33/15 Q1014 NOSIG

Aviation forecast (TAF) for Venice Marco Polo Airport

Retrieved 2022/07/04 06:00 UTC (6 hours ago):

TAF LIPZ 040500Z 0406/0512 03008KT CAVOK BECMG 0409/0411 15010KT TEMPO 0416/0424 TSRA BECMG 0418/0421 03012KT